sensor_id;sensor_type;location;lat;lon;timestamp;P1;durP1;ratioP1;P2;durP2;ratioP2
60726;SDS011;46577;49.004;12.120;2022-12-07T00:01:06;8.87;;;5.80;;
60726;SDS011;46577;49.004;12.120;2022-12-07T00:03:40;9.03;;;6.40;;
60726;SDS011;46577;49.004;12.120;2022-12-07T00:06:07;9.43;;;5.30;;
60726;SDS011;46577;49.004;12.120;2022-12-07T00:08:35;8.97;;;5.67;;
60726;SDS011;46577;49.004;12.120;2022-12-07T00:11:05;7.90;;;5.13;;
60726;SDS011;46577;49.004;12.120;2022-12-07T00:13:36;6.97;;;5.00;;
60726;SDS011;46577;49.004;12.120;2022-12-07T00:16:03;8.60;;;5.63;;
60726;SDS011;46577;49.004;12.120;2022-12-07T00:18:33;6.97;;;4.93;;
60726;SDS011;46577;49.004;12.120;2022-12-07T00:21:06;10.00;;;5.50;;
60726;SDS011;46577;49.004;12.120;2022-12-07T00:23:37;8.73;;;5.70;;
60726;SDS011;46577;49.004;12.120;2022-12-07T00:26:04;9.13;;;5.80;;
60726;SDS011;46577;49.004;12.120;2022-12-07T00:28:37;9.47;;;5.73;;
60726;SDS011;46577;49.004;12.120;2022-12-07T00:31:04;9.20;;;5.97;;
60726;SDS011;46577;49.004;12.120;2022-12-07T00:33:39;8.97;;;5.80;;
60726;SDS011;46577;49.004;12.120;2022-12-07T00:36:06;8.40;;;5.47;;
60726;SDS011;46577;49.004;12.120;2022-12-07T00:38:34;9.33;;;5.60;;
60726;SDS011;46577;49.004;12.120;2022-12-07T00:41:02;9.43;;;5.90;;
60726;SDS011;46577;49.004;12.120;2022-12-07T00:43:30;10.57;;;5.80;;
60726;SDS011;46577;49.004;12.120;2022-12-07T00:45:56;8.07;;;6.10;;
60726;SDS011;46577;49.004;12.120;2022-12-07T00:48:22;10.47;;;6.30;;
60726;SDS011;46577;49.004;12.120;2022-12-07T00:50:48;10.53;;;5.60;;
60726;SDS011;46577;49.004;12.120;2022-12-07T00:53:14;7.57;;;5.10;;
60726;SDS011;46577;49.004;12.120;2022-12-07T00:55:40;6.27;;;5.00;;
60726;SDS011;46577;49.004;12.120;2022-12-07T00:58:06;6.90;;;5.03;;
60726;SDS011;46577;49.004;12.120;2022-12-07T01:00:32;7.83;;;5.57;;
60726;SDS011;46577;49.004;12.120;2022-12-07T01:03:00;6.10;;;4.80;;
60726;SDS011;46577;49.004;12.120;2022-12-07T01:05:26;8.40;;;5.90;;
60726;SDS011;46577;49.004;12.120;2022-12-07T01:07:52;7.37;;;5.10;;
60726;SDS011;46577;49.004;12.120;2022-12-07T01:10:17;8.63;;;5.80;;
60726;SDS011;46577;49.004;12.120;2022-12-07T01:12:43;6.30;;;5.60;;
60726;SDS011;46577;49.004;12.120;2022-12-07T01:15:09;7.60;;;5.00;;
60726;SDS011;46577;49.004;12.120;2022-12-07T01:17:34;7.80;;;5.63;;
60726;SDS011;46577;49.004;12.120;2022-12-07T01:20:00;8.70;;;5.70;;
60726;SDS011;46577;49.004;12.120;2022-12-07T01:22:26;7.83;;;5.50;;
60726;SDS011;46577;49.004;12.120;2022-12-07T01:24:52;7.60;;;5.30;;
60726;SDS011;46577;49.004;12.120;2022-12-07T01:27:18;8.40;;;5.63;;
60726;SDS011;46577;49.004;12.120;2022-12-07T01:29:43;9.60;;;6.50;;
60726;SDS011;46577;49.004;12.120;2022-12-07T01:32:09;17.47;;;5.80;;
60726;SDS011;46577;49.004;12.120;2022-12-07T01:34:35;8.10;;;5.80;;
60726;SDS011;46577;49.004;12.120;2022-12-07T01:37:01;8.50;;;5.77;;
60726;SDS011;46577;49.004;12.120;2022-12-07T01:39:26;8.50;;;5.97;;
60726;SDS011;46577;49.004;12.120;2022-12-07T01:41:52;8.17;;;5.70;;
60726;SDS011;46577;49.004;12.120;2022-12-07T01:44:25;9.57;;;5.80;;
60726;SDS011;46577;49.004;12.120;2022-12-07T01:46:55;5.00;;;4.23;;
60726;SDS011;46577;49.004;12.120;2022-12-07T01:51:57;5.60;;;3.97;;
60726;SDS011;46577;49.004;12.120;2022-12-07T01:54:28;4.20;;;3.33;;
60726;SDS011;46577;49.004;12.120;2022-12-07T01:56:54;4.63;;;3.60;;
60726;SDS011;46577;49.004;12.120;2022-12-07T01:59:23;7.93;;;4.63;;
60726;SDS011;46577;49.004;12.120;2022-12-07T02:01:51;5.30;;;4.23;;
60726;SDS011;46577;49.004;12.120;2022-12-07T02:04:18;6.77;;;4.33;;
60726;SDS011;46577;49.004;12.120;2022-12-07T02:06:44;4.90;;;4.30;;
60726;SDS011;46577;49.004;12.120;2022-12-07T02:09:10;4.60;;;3.60;;
60726;SDS011;46577;49.004;12.120;2022-12-07T02:11:37;6.20;;;4.20;;
60726;SDS011;46577;49.004;12.120;2022-12-07T02:14:03;9.57;;;6.30;;
60726;SDS011;46577;49.004;12.120;2022-12-07T02:16:42;6.40;;;4.53;;
60726;SDS011;46577;49.004;12.120;2022-12-07T02:19:50;6.60;;;4.80;;
60726;SDS011;46577;49.004;12.120;2022-12-07T02:22:43;8.20;;;4.60;;
60726;SDS011;46577;49.004;12.120;2022-12-07T02:25:18;7.83;;;5.30;;
60726;SDS011;46577;49.004;12.120;2022-12-07T02:28:07;6.23;;;5.23;;
60726;SDS011;46577;49.004;12.120;2022-12-07T02:30:53;10.10;;;5.67;;
60726;SDS011;46577;49.004;12.120;2022-12-07T02:33:31;10.10;;;6.30;;
60726;SDS011;46577;49.004;12.120;2022-12-07T02:36:02;8.43;;;6.17;;
60726;SDS011;46577;49.004;12.120;2022-12-07T02:38:47;7.80;;;5.67;;
60726;SDS011;46577;49.004;12.120;2022-12-07T02:41:31;7.33;;;5.50;;
60726;SDS011;46577;49.004;12.120;2022-12-07T02:44:06;10.20;;;6.17;;
60726;SDS011;46577;49.004;12.120;2022-12-07T02:46:40;8.33;;;5.83;;
60726;SDS011;46577;49.004;12.120;2022-12-07T02:49:09;7.43;;;6.03;;
60726;SDS011;46577;49.004;12.120;2022-12-07T02:51:38;8.40;;;6.00;;
60726;SDS011;46577;49.004;12.120;2022-12-07T02:54:11;9.13;;;6.10;;
60726;SDS011;46577;49.004;12.120;2022-12-07T02:59:29;8.30;;;5.40;;
60726;SDS011;46577;49.004;12.120;2022-12-07T03:18:24;9.83;;;5.93;;
60726;SDS011;46577;49.004;12.120;2022-12-07T03:20:53;8.30;;;5.40;;
60726;SDS011;46577;49.004;12.120;2022-12-07T03:23:23;9.07;;;6.30;;
60726;SDS011;46577;49.004;12.120;2022-12-07T03:25:52;8.87;;;6.07;;
60726;SDS011;46577;49.004;12.120;2022-12-07T03:28:22;8.07;;;5.87;;
60726;SDS011;46577;49.004;12.120;2022-12-07T03:33:39;10.63;;;7.67;;
60726;SDS011;46577;49.004;12.120;2022-12-07T03:36:28;11.33;;;6.70;;
60726;SDS011;46577;49.004;12.120;2022-12-07T03:41:56;15.87;;;7.47;;
60726;SDS011;46577;49.004;12.120;2022-12-07T03:44:24;11.10;;;6.90;;
60726;SDS011;46577;49.004;12.120;2022-12-07T03:49:56;12.97;;;6.83;;
60726;SDS011;46577;49.004;12.120;2022-12-07T03:55:10;10.77;;;7.30;;
60726;SDS011;46577;49.004;12.120;2022-12-07T03:57:46;11.80;;;7.97;;
60726;SDS011;46577;49.004;12.120;2022-12-07T04:00:14;12.17;;;7.53;;
60726;SDS011;46577;49.004;12.120;2022-12-07T04:02:40;20.77;;;9.17;;
60726;SDS011;46577;49.004;12.120;2022-12-07T04:05:06;14.20;;;8.37;;
60726;SDS011;46577;49.004;12.120;2022-12-07T04:07:32;12.03;;;7.73;;
60726;SDS011;46577;49.004;12.120;2022-12-07T04:09:58;15.33;;;9.03;;
60726;SDS011;46577;49.004;12.120;2022-12-07T04:12:24;12.00;;;7.80;;
60726;SDS011;46577;49.004;12.120;2022-12-07T04:14:50;14.23;;;8.30;;
60726;SDS011;46577;49.004;12.120;2022-12-07T04:17:15;14.80;;;8.80;;
60726;SDS011;46577;49.004;12.120;2022-12-07T04:19:41;13.00;;;8.50;;
60726;SDS011;46577;49.004;12.120;2022-12-07T04:22:07;13.57;;;8.30;;
60726;SDS011;46577;49.004;12.120;2022-12-07T04:24:33;12.20;;;7.63;;
60726;SDS011;46577;49.004;12.120;2022-12-07T04:26:59;13.70;;;8.80;;
60726;SDS011;46577;49.004;12.120;2022-12-07T04:29:24;12.90;;;8.20;;
60726;SDS011;46577;49.004;12.120;2022-12-07T04:31:51;11.27;;;7.57;;
60726;SDS011;46577;49.004;12.120;2022-12-07T04:34:17;22.63;;;9.40;;
60726;SDS011;46577;49.004;12.120;2022-12-07T04:36:44;15.60;;;9.23;;
60726;SDS011;46577;49.004;12.120;2022-12-07T04:39:18;12.53;;;8.23;;
60726;SDS011;46577;49.004;12.120;2022-12-07T04:41:54;14.77;;;9.40;;
60726;SDS011;46577;49.004;12.120;2022-12-07T04:44:21;12.90;;;8.00;;
60726;SDS011;46577;49.004;12.120;2022-12-07T04:46:47;15.20;;;8.87;;
60726;SDS011;46577;49.004;12.120;2022-12-07T04:49:14;12.60;;;8.67;;
60726;SDS011;46577;49.004;12.120;2022-12-07T04:51:40;16.57;;;9.53;;
60726;SDS011;46577;49.004;12.120;2022-12-07T04:54:06;12.83;;;9.20;;
60726;SDS011;46577;49.004;12.120;2022-12-07T04:56:32;16.10;;;9.90;;
60726;SDS011;46577;49.004;12.120;2022-12-07T04:59:00;13.67;;;8.27;;
60726;SDS011;46577;49.004;12.120;2022-12-07T05:01:26;17.90;;;10.63;;
60726;SDS011;46577;49.004;12.120;2022-12-07T05:03:52;14.00;;;8.70;;
60726;SDS011;46577;49.004;12.120;2022-12-07T05:06:18;15.47;;;9.70;;
60726;SDS011;46577;49.004;12.120;2022-12-07T05:08:44;15.80;;;9.53;;
60726;SDS011;46577;49.004;12.120;2022-12-07T05:11:10;19.30;;;9.00;;
60726;SDS011;46577;49.004;12.120;2022-12-07T05:13:55;15.50;;;8.90;;
60726;SDS011;46577;49.004;12.120;2022-12-07T05:16:21;17.03;;;10.00;;
60726;SDS011;46577;49.004;12.120;2022-12-07T05:18:46;15.90;;;9.87;;
60726;SDS011;46577;49.004;12.120;2022-12-07T05:21:12;17.20;;;8.90;;
60726;SDS011;46577;49.004;12.120;2022-12-07T05:23:38;16.83;;;10.63;;
60726;SDS011;46577;49.004;12.120;2022-12-07T05:26:03;20.97;;;10.73;;
60726;SDS011;46577;49.004;12.120;2022-12-07T05:28:29;18.50;;;10.73;;
60726;SDS011;46577;49.004;12.120;2022-12-07T05:30:54;16.93;;;10.43;;
60726;SDS011;46577;49.004;12.120;2022-12-07T05:33:20;20.47;;;10.70;;
60726;SDS011;46577;49.004;12.120;2022-12-07T05:35:46;17.70;;;10.17;;
60726;SDS011;46577;49.004;12.120;2022-12-07T05:38:11;23.23;;;11.80;;
60726;SDS011;46577;49.004;12.120;2022-12-07T05:40:37;21.60;;;10.20;;
60726;SDS011;46577;49.004;12.120;2022-12-07T05:43:02;21.37;;;10.93;;
60726;SDS011;46577;49.004;12.120;2022-12-07T05:45:28;20.83;;;12.40;;
60726;SDS011;46577;49.004;12.120;2022-12-07T05:47:54;16.63;;;9.73;;
60726;SDS011;46577;49.004;12.120;2022-12-07T05:50:19;22.80;;;11.20;;
60726;SDS011;46577;49.004;12.120;2022-12-07T05:52:45;30.33;;;14.10;;
60726;SDS011;46577;49.004;12.120;2022-12-07T05:55:10;26.40;;;13.57;;
60726;SDS011;46577;49.004;12.120;2022-12-07T05:57:36;23.40;;;13.17;;
60726;SDS011;46577;49.004;12.120;2022-12-07T06:00:02;16.43;;;9.07;;
60726;SDS011;46577;49.004;12.120;2022-12-07T06:02:28;21.40;;;10.97;;
60726;SDS011;46577;49.004;12.120;2022-12-07T06:04:54;20.97;;;10.90;;
60726;SDS011;46577;49.004;12.120;2022-12-07T06:07:20;20.83;;;11.30;;
60726;SDS011;46577;49.004;12.120;2022-12-07T06:09:45;21.70;;;11.17;;
60726;SDS011;46577;49.004;12.120;2022-12-07T06:12:11;19.70;;;10.67;;
60726;SDS011;46577;49.004;12.120;2022-12-07T06:14:56;24.70;;;13.97;;
60726;SDS011;46577;49.004;12.120;2022-12-07T06:17:22;25.60;;;13.90;;
60726;SDS011;46577;49.004;12.120;2022-12-07T06:19:47;27.63;;;13.43;;
60726;SDS011;46577;49.004;12.120;2022-12-07T06:22:13;23.00;;;12.53;;
60726;SDS011;46577;49.004;12.120;2022-12-07T06:24:41;27.63;;;14.20;;
60726;SDS011;46577;49.004;12.120;2022-12-07T06:27:06;26.90;;;13.60;;
60726;SDS011;46577;49.004;12.120;2022-12-07T06:29:32;30.60;;;13.73;;
60726;SDS011;46577;49.004;12.120;2022-12-07T06:31:58;24.47;;;11.57;;
60726;SDS011;46577;49.004;12.120;2022-12-07T06:34:26;29.90;;;13.73;;
60726;SDS011;46577;49.004;12.120;2022-12-07T06:36:52;25.43;;;13.33;;
60726;SDS011;46577;49.004;12.120;2022-12-07T06:39:20;36.80;;;14.00;;
60726;SDS011;46577;49.004;12.120;2022-12-07T06:41:47;26.87;;;13.47;;
60726;SDS011;46577;49.004;12.120;2022-12-07T06:44:16;25.80;;;12.63;;
60726;SDS011;46577;49.004;12.120;2022-12-07T06:46:42;29.33;;;14.10;;
60726;SDS011;46577;49.004;12.120;2022-12-07T06:49:08;33.70;;;13.40;;
60726;SDS011;46577;49.004;12.120;2022-12-07T06:51:33;26.47;;;12.37;;
60726;SDS011;46577;49.004;12.120;2022-12-07T06:54:06;24.20;;;12.70;;
60726;SDS011;46577;49.004;12.120;2022-12-07T06:56:35;26.97;;;12.20;;
60726;SDS011;46577;49.004;12.120;2022-12-07T06:59:01;24.17;;;13.50;;
60726;SDS011;46577;49.004;12.120;2022-12-07T07:01:28;31.90;;;15.00;;
60726;SDS011;46577;49.004;12.120;2022-12-07T07:03:53;31.87;;;14.80;;
60726;SDS011;46577;49.004;12.120;2022-12-07T07:06:19;26.40;;;14.37;;
60726;SDS011;46577;49.004;12.120;2022-12-07T07:08:45;27.33;;;14.43;;
60726;SDS011;46577;49.004;12.120;2022-12-07T07:11:10;35.80;;;15.70;;
60726;SDS011;46577;49.004;12.120;2022-12-07T07:13:36;30.13;;;14.73;;
60726;SDS011;46577;49.004;12.120;2022-12-07T07:16:02;29.50;;;14.10;;
60726;SDS011;46577;49.004;12.120;2022-12-07T07:18:28;30.17;;;15.57;;
60726;SDS011;46577;49.004;12.120;2022-12-07T07:20:54;26.73;;;13.17;;
60726;SDS011;46577;49.004;12.120;2022-12-07T07:23:20;29.13;;;13.93;;
60726;SDS011;46577;49.004;12.120;2022-12-07T07:25:46;26.93;;;13.53;;
60726;SDS011;46577;49.004;12.120;2022-12-07T07:28:13;23.53;;;13.63;;
60726;SDS011;46577;49.004;12.120;2022-12-07T07:30:39;25.13;;;13.90;;
60726;SDS011;46577;49.004;12.120;2022-12-07T07:33:05;24.43;;;12.77;;
60726;SDS011;46577;49.004;12.120;2022-12-07T07:35:32;22.27;;;12.67;;
60726;SDS011;46577;49.004;12.120;2022-12-07T07:37:58;23.60;;;13.00;;
60726;SDS011;46577;49.004;12.120;2022-12-07T07:40:25;21.73;;;10.90;;
60726;SDS011;46577;49.004;12.120;2022-12-07T07:42:51;22.20;;;11.60;;
60726;SDS011;46577;49.004;12.120;2022-12-07T07:45:22;22.57;;;10.80;;
60726;SDS011;46577;49.004;12.120;2022-12-07T07:47:49;26.87;;;12.10;;
60726;SDS011;46577;49.004;12.120;2022-12-07T07:50:15;20.00;;;12.60;;
60726;SDS011;46577;49.004;12.120;2022-12-07T07:52:42;18.83;;;10.80;;
60726;SDS011;46577;49.004;12.120;2022-12-07T07:55:08;17.97;;;10.30;;
60726;SDS011;46577;49.004;12.120;2022-12-07T07:57:34;16.00;;;9.37;;
60726;SDS011;46577;49.004;12.120;2022-12-07T08:00:03;17.80;;;9.90;;
60726;SDS011;46577;49.004;12.120;2022-12-07T08:02:30;17.57;;;10.10;;
60726;SDS011;46577;49.004;12.120;2022-12-07T08:04:56;15.73;;;9.70;;
60726;SDS011;46577;49.004;12.120;2022-12-07T08:07:21;21.27;;;10.50;;
60726;SDS011;46577;49.004;12.120;2022-12-07T08:09:47;25.20;;;9.80;;
60726;SDS011;46577;49.004;12.120;2022-12-07T08:12:12;17.23;;;9.50;;
60726;SDS011;46577;49.004;12.120;2022-12-07T08:14:38;16.93;;;10.43;;
60726;SDS011;46577;49.004;12.120;2022-12-07T08:17:04;21.03;;;10.57;;
60726;SDS011;46577;49.004;12.120;2022-12-07T08:19:30;14.87;;;9.60;;
60726;SDS011;46577;49.004;12.120;2022-12-07T08:21:55;47.73;;;23.80;;
60726;SDS011;46577;49.004;12.120;2022-12-07T08:24:21;17.20;;;9.63;;
60726;SDS011;46577;49.004;12.120;2022-12-07T08:26:47;18.63;;;10.33;;
60726;SDS011;46577;49.004;12.120;2022-12-07T08:29:14;15.60;;;9.43;;
60726;SDS011;46577;49.004;12.120;2022-12-07T08:31:40;14.77;;;9.80;;
60726;SDS011;46577;49.004;12.120;2022-12-07T08:34:06;17.10;;;9.90;;
60726;SDS011;46577;49.004;12.120;2022-12-07T08:36:31;13.47;;;8.70;;
60726;SDS011;46577;49.004;12.120;2022-12-07T08:38:57;17.57;;;8.83;;
60726;SDS011;46577;49.004;12.120;2022-12-07T08:41:22;15.30;;;9.17;;
60726;SDS011;46577;49.004;12.120;2022-12-07T08:43:48;13.67;;;8.23;;
60726;SDS011;46577;49.004;12.120;2022-12-07T08:46:18;13.23;;;8.97;;
60726;SDS011;46577;49.004;12.120;2022-12-07T08:49:22;12.10;;;7.60;;
60726;SDS011;46577;49.004;12.120;2022-12-07T08:51:51;16.43;;;8.37;;
60726;SDS011;46577;49.004;12.120;2022-12-07T08:54:17;15.87;;;9.10;;
60726;SDS011;46577;49.004;12.120;2022-12-07T08:56:44;13.03;;;8.13;;
60726;SDS011;46577;49.004;12.120;2022-12-07T08:59:11;15.47;;;9.30;;
60726;SDS011;46577;49.004;12.120;2022-12-07T09:01:42;13.47;;;8.10;;
60726;SDS011;46577;49.004;12.120;2022-12-07T09:04:13;17.40;;;9.50;;
60726;SDS011;46577;49.004;12.120;2022-12-07T09:06:40;14.47;;;9.23;;
60726;SDS011;46577;49.004;12.120;2022-12-07T09:09:06;21.10;;;9.40;;
60726;SDS011;46577;49.004;12.120;2022-12-07T09:11:33;13.83;;;7.77;;
60726;SDS011;46577;49.004;12.120;2022-12-07T09:13:58;14.13;;;9.20;;
60726;SDS011;46577;49.004;12.120;2022-12-07T09:16:24;15.30;;;9.10;;
60726;SDS011;46577;49.004;12.120;2022-12-07T09:18:49;12.00;;;7.33;;
60726;SDS011;46577;49.004;12.120;2022-12-07T09:21:15;13.57;;;8.07;;
60726;SDS011;46577;49.004;12.120;2022-12-07T09:23:41;13.17;;;7.27;;
60726;SDS011;46577;49.004;12.120;2022-12-07T09:26:08;12.73;;;7.83;;
60726;SDS011;46577;49.004;12.120;2022-12-07T09:28:33;12.80;;;7.13;;
60726;SDS011;46577;49.004;12.120;2022-12-07T09:30:59;13.67;;;7.83;;
60726;SDS011;46577;49.004;12.120;2022-12-07T09:33:25;13.77;;;9.50;;
60726;SDS011;46577;49.004;12.120;2022-12-07T09:35:51;13.97;;;8.53;;
60726;SDS011;46577;49.004;12.120;2022-12-07T09:38:17;12.07;;;7.27;;
60726;SDS011;46577;49.004;12.120;2022-12-07T09:40:44;15.33;;;8.23;;
60726;SDS011;46577;49.004;12.120;2022-12-07T09:43:14;16.87;;;8.90;;
60726;SDS011;46577;49.004;12.120;2022-12-07T09:45:43;19.73;;;9.47;;
60726;SDS011;46577;49.004;12.120;2022-12-07T09:48:17;14.70;;;8.70;;
60726;SDS011;46577;49.004;12.120;2022-12-07T09:50:46;15.20;;;8.30;;
60726;SDS011;46577;49.004;12.120;2022-12-07T09:53:14;14.80;;;8.83;;
60726;SDS011;46577;49.004;12.120;2022-12-07T09:55:47;14.37;;;7.80;;
60726;SDS011;46577;49.004;12.120;2022-12-07T09:58:23;12.60;;;7.27;;
60726;SDS011;46577;49.004;12.120;2022-12-07T10:00:55;16.20;;;8.20;;
60726;SDS011;46577;49.004;12.120;2022-12-07T10:03:26;15.80;;;8.10;;
60726;SDS011;46577;49.004;12.120;2022-12-07T10:05:53;12.63;;;7.77;;
60726;SDS011;46577;49.004;12.120;2022-12-07T10:08:19;13.23;;;7.40;;
60726;SDS011;46577;49.004;12.120;2022-12-07T10:10:46;12.43;;;7.63;;
60726;SDS011;46577;49.004;12.120;2022-12-07T10:13:19;15.20;;;8.73;;
60726;SDS011;46577;49.004;12.120;2022-12-07T10:15:53;14.77;;;8.63;;
60726;SDS011;46577;49.004;12.120;2022-12-07T10:20:59;17.43;;;9.20;;
60726;SDS011;46577;49.004;12.120;2022-12-07T10:23:32;12.73;;;7.13;;
60726;SDS011;46577;49.004;12.120;2022-12-07T10:25:59;12.73;;;7.87;;
60726;SDS011;46577;49.004;12.120;2022-12-07T10:28:44;11.07;;;7.00;;
60726;SDS011;46577;49.004;12.120;2022-12-07T10:31:17;16.20;;;8.93;;
60726;SDS011;46577;49.004;12.120;2022-12-07T10:33:49;11.83;;;7.60;;
60726;SDS011;46577;49.004;12.120;2022-12-07T10:39:02;13.00;;;7.63;;
60726;SDS011;46577;49.004;12.120;2022-12-07T10:41:28;12.07;;;6.77;;
60726;SDS011;46577;49.004;12.120;2022-12-07T10:43:55;12.23;;;7.43;;
60726;SDS011;46577;49.004;12.120;2022-12-07T10:46:41;12.33;;;7.40;;
60726;SDS011;46577;49.004;12.120;2022-12-07T10:52:00;11.47;;;6.53;;
60726;SDS011;46577;49.004;12.120;2022-12-07T11:00:58;10.50;;;6.07;;
60726;SDS011;46577;49.004;12.120;2022-12-07T11:03:33;12.87;;;6.20;;
60726;SDS011;46577;49.004;12.120;2022-12-07T11:12:02;7.53;;;5.20;;
60726;SDS011;46577;49.004;12.120;2022-12-07T11:17:14;10.30;;;6.13;;
60726;SDS011;46577;49.004;12.120;2022-12-07T11:26:05;11.73;;;5.70;;
60726;SDS011;46577;49.004;12.120;2022-12-07T11:36:45;11.63;;;7.17;;
60726;SDS011;46577;49.004;12.120;2022-12-07T11:39:19;10.63;;;5.60;;
60726;SDS011;46577;49.004;12.120;2022-12-07T11:42:00;9.60;;;6.00;;
60726;SDS011;46577;49.004;12.120;2022-12-07T11:44:46;9.97;;;6.33;;
60726;SDS011;46577;49.004;12.120;2022-12-07T12:03:48;9.53;;;5.70;;
60726;SDS011;46577;49.004;12.120;2022-12-07T12:06:16;10.50;;;6.10;;
60726;SDS011;46577;49.004;12.120;2022-12-07T12:08:43;20.00;;;6.60;;
60726;SDS011;46577;49.004;12.120;2022-12-07T12:14:02;12.50;;;6.10;;
60726;SDS011;46577;49.004;12.120;2022-12-07T12:22:47;10.50;;;5.70;;
60726;SDS011;46577;49.004;12.120;2022-12-07T12:33:31;8.07;;;5.30;;
60726;SDS011;46577;49.004;12.120;2022-12-07T12:47:37;6.70;;;4.00;;
60726;SDS011;46577;49.004;12.120;2022-12-07T12:50:20;8.33;;;5.70;;
60726;SDS011;46577;49.004;12.120;2022-12-07T12:52:49;8.10;;;5.63;;
60726;SDS011;46577;49.004;12.120;2022-12-07T13:00:42;9.83;;;5.27;;
60726;SDS011;46577;49.004;12.120;2022-12-07T13:03:21;12.10;;;5.53;;
60726;SDS011;46577;49.004;12.120;2022-12-07T13:06:16;10.60;;;5.43;;
60726;SDS011;46577;49.004;12.120;2022-12-07T13:08:52;10.70;;;5.20;;
60726;SDS011;46577;49.004;12.120;2022-12-07T13:11:30;10.53;;;5.70;;
60726;SDS011;46577;49.004;12.120;2022-12-07T13:17:06;11.97;;;6.07;;
60726;SDS011;46577;49.004;12.120;2022-12-07T13:24:59;9.97;;;5.50;;
60726;SDS011;46577;49.004;12.120;2022-12-07T13:27:27;16.40;;;5.10;;
60726;SDS011;46577;49.004;12.120;2022-12-07T13:29:54;13.73;;;5.10;;
60726;SDS011;46577;49.004;12.120;2022-12-07T13:32:25;9.20;;;4.40;;
60726;SDS011;46577;49.004;12.120;2022-12-07T13:34:52;9.20;;;5.23;;
60726;SDS011;46577;49.004;12.120;2022-12-07T13:39:52;8.27;;;4.93;;
60726;SDS011;46577;49.004;12.120;2022-12-07T13:44:56;9.07;;;5.30;;
60726;SDS011;46577;49.004;12.120;2022-12-07T13:47:41;9.53;;;5.07;;
60726;SDS011;46577;49.004;12.120;2022-12-07T13:50:23;10.40;;;5.50;;
60726;SDS011;46577;49.004;12.120;2022-12-07T13:52:59;10.43;;;5.13;;
60726;SDS011;46577;49.004;12.120;2022-12-07T13:55:27;8.73;;;5.63;;
60726;SDS011;46577;49.004;12.120;2022-12-07T13:57:54;6.97;;;4.73;;
60726;SDS011;46577;49.004;12.120;2022-12-07T14:00:21;9.57;;;5.23;;
60726;SDS011;46577;49.004;12.120;2022-12-07T14:02:56;9.07;;;5.40;;
60726;SDS011;46577;49.004;12.120;2022-12-07T14:05:28;8.37;;;5.00;;
60726;SDS011;46577;49.004;12.120;2022-12-07T14:07:56;6.67;;;4.80;;
60726;SDS011;46577;49.004;12.120;2022-12-07T14:13:01;7.80;;;5.30;;
60726;SDS011;46577;49.004;12.120;2022-12-07T14:15:32;11.40;;;5.30;;
60726;SDS011;46577;49.004;12.120;2022-12-07T14:17:59;12.17;;;5.20;;
60726;SDS011;46577;49.004;12.120;2022-12-07T14:23:02;11.07;;;6.27;;
60726;SDS011;46577;49.004;12.120;2022-12-07T14:25:43;9.33;;;4.97;;
60726;SDS011;46577;49.004;12.120;2022-12-07T14:28:27;13.43;;;5.80;;
60726;SDS011;46577;49.004;12.120;2022-12-07T14:30:58;9.13;;;5.13;;
60726;SDS011;46577;49.004;12.120;2022-12-07T14:33:25;9.77;;;5.67;;
60726;SDS011;46577;49.004;12.120;2022-12-07T14:35:52;8.37;;;4.77;;
60726;SDS011;46577;49.004;12.120;2022-12-07T14:38:22;13.07;;;5.20;;
60726;SDS011;46577;49.004;12.120;2022-12-07T14:40:49;9.83;;;5.57;;
60726;SDS011;46577;49.004;12.120;2022-12-07T14:43:17;7.43;;;5.10;;
60726;SDS011;46577;49.004;12.120;2022-12-07T14:45:43;12.70;;;6.27;;
60726;SDS011;46577;49.004;12.120;2022-12-07T14:48:13;10.90;;;5.70;;
60726;SDS011;46577;49.004;12.120;2022-12-07T14:50:41;14.13;;;5.37;;
60726;SDS011;46577;49.004;12.120;2022-12-07T14:53:14;8.10;;;5.40;;
60726;SDS011;46577;49.004;12.120;2022-12-07T14:55:45;8.70;;;5.40;;
60726;SDS011;46577;49.004;12.120;2022-12-07T14:58:14;10.37;;;5.50;;
60726;SDS011;46577;49.004;12.120;2022-12-07T15:00:40;12.00;;;6.27;;
60726;SDS011;46577;49.004;12.120;2022-12-07T15:03:06;10.80;;;5.37;;
60726;SDS011;46577;49.004;12.120;2022-12-07T15:05:32;9.67;;;4.90;;
60726;SDS011;46577;49.004;12.120;2022-12-07T15:07:58;10.43;;;6.00;;
60726;SDS011;46577;49.004;12.120;2022-12-07T15:10:25;10.77;;;5.87;;
60726;SDS011;46577;49.004;12.120;2022-12-07T15:12:56;8.93;;;6.63;;
60726;SDS011;46577;49.004;12.120;2022-12-07T15:15:45;13.80;;;6.30;;
60726;SDS011;46577;49.004;12.120;2022-12-07T15:18:11;9.83;;;5.67;;
60726;SDS011;46577;49.004;12.120;2022-12-07T15:20:37;7.77;;;5.00;;
60726;SDS011;46577;49.004;12.120;2022-12-07T15:23:02;8.50;;;5.50;;
60726;SDS011;46577;49.004;12.120;2022-12-07T15:25:28;14.23;;;6.40;;
60726;SDS011;46577;49.004;12.120;2022-12-07T15:27:54;10.70;;;6.43;;
60726;SDS011;46577;49.004;12.120;2022-12-07T15:30:19;11.27;;;6.27;;
60726;SDS011;46577;49.004;12.120;2022-12-07T15:32:48;13.30;;;6.53;;
60726;SDS011;46577;49.004;12.120;2022-12-07T15:35:15;9.03;;;6.17;;
60726;SDS011;46577;49.004;12.120;2022-12-07T15:37:40;8.77;;;5.43;;
60726;SDS011;46577;49.004;12.120;2022-12-07T15:40:06;9.73;;;6.13;;
60726;SDS011;46577;49.004;12.120;2022-12-07T15:42:32;8.60;;;5.60;;
60726;SDS011;46577;49.004;12.120;2022-12-07T15:44:58;21.73;;;10.10;;
60726;SDS011;46577;49.004;12.120;2022-12-07T15:47:30;9.03;;;5.90;;
60726;SDS011;46577;49.004;12.120;2022-12-07T15:50:01;11.67;;;6.87;;
60726;SDS011;46577;49.004;12.120;2022-12-07T15:52:32;12.30;;;5.43;;
60726;SDS011;46577;49.004;12.120;2022-12-07T15:54:57;11.40;;;5.73;;
60726;SDS011;46577;49.004;12.120;2022-12-07T15:57:24;11.97;;;6.30;;
60726;SDS011;46577;49.004;12.120;2022-12-07T15:59:51;10.27;;;6.27;;
60726;SDS011;46577;49.004;12.120;2022-12-07T16:02:18;12.43;;;5.77;;
60726;SDS011;46577;49.004;12.120;2022-12-07T16:04:44;8.60;;;5.40;;
60726;SDS011;46577;49.004;12.120;2022-12-07T16:07:10;18.70;;;7.53;;
60726;SDS011;46577;49.004;12.120;2022-12-07T16:09:36;18.10;;;7.70;;
60726;SDS011;46577;49.004;12.120;2022-12-07T16:12:02;14.03;;;7.83;;
60726;SDS011;46577;49.004;12.120;2022-12-07T16:14:28;19.03;;;9.80;;
60726;SDS011;46577;49.004;12.120;2022-12-07T16:16:54;11.87;;;7.13;;
60726;SDS011;46577;49.004;12.120;2022-12-07T16:19:20;15.00;;;7.87;;
60726;SDS011;46577;49.004;12.120;2022-12-07T16:21:46;13.87;;;7.47;;
60726;SDS011;46577;49.004;12.120;2022-12-07T16:24:11;12.87;;;7.13;;
60726;SDS011;46577;49.004;12.120;2022-12-07T16:26:39;12.57;;;7.10;;
60726;SDS011;46577;49.004;12.120;2022-12-07T16:29:05;13.77;;;7.50;;
60726;SDS011;46577;49.004;12.120;2022-12-07T16:31:31;12.03;;;7.50;;
60726;SDS011;46577;49.004;12.120;2022-12-07T16:33:57;11.57;;;6.70;;
60726;SDS011;46577;49.004;12.120;2022-12-07T16:36:23;14.40;;;7.37;;
60726;SDS011;46577;49.004;12.120;2022-12-07T16:38:51;14.80;;;7.97;;
60726;SDS011;46577;49.004;12.120;2022-12-07T16:41:17;11.60;;;6.60;;
60726;SDS011;46577;49.004;12.120;2022-12-07T16:43:43;13.73;;;7.10;;
60726;SDS011;46577;49.004;12.120;2022-12-07T16:46:09;12.13;;;6.83;;
60726;SDS011;46577;49.004;12.120;2022-12-07T16:48:36;15.03;;;8.30;;
60726;SDS011;46577;49.004;12.120;2022-12-07T16:51:03;15.27;;;8.90;;
60726;SDS011;46577;49.004;12.120;2022-12-07T16:53:30;18.43;;;7.90;;